createdAt,value
2022-10-05T00:00:13.813Z,23.75
2022-10-05T00:03:08.803Z,20.15
2022-10-05T00:05:55.850Z,20.77
2022-10-05T00:08:31.876Z,22.00
2022-10-05T00:11:20.830Z,21.50
2022-10-05T00:14:00.824Z,22.23
2022-10-05T00:16:48.077Z,22.33
2022-10-05T00:19:37.893Z,20.70
2022-10-05T00:22:36.819Z,21.85
2022-10-05T00:25:19.875Z,22.38
2022-10-05T00:28:07.823Z,23.05
2022-10-05T00:30:40.942Z,21.10
2022-10-05T00:33:27.844Z,21.50
2022-10-05T00:36:01.865Z,20.23
2022-10-05T00:38:48.826Z,20.10
2022-10-05T00:41:36.894Z,21.83
2022-10-05T00:44:48.807Z,21.15
2022-10-05T00:47:49.804Z,22.33
2022-10-05T00:50:41.820Z,19.42
2022-10-05T00:53:58.838Z,20.17
2022-10-05T00:57:13.834Z,21.42
2022-10-05T01:00:19.933Z,21.13
2022-10-05T01:03:10.838Z,21.00
2022-10-05T01:06:22.832Z,21.20
2022-10-05T01:09:32.845Z,19.50
2022-10-05T01:12:15.892Z,19.77
2022-10-05T01:15:07.825Z,21.73
2022-10-05T01:18:02.834Z,20.45
2022-10-05T01:20:51.159Z,19.73
2022-10-05T01:24:11.841Z,20.75
2022-10-05T01:26:58.783Z,19.23
2022-10-05T01:30:04.828Z,19.35
2022-10-05T01:32:51.385Z,20.55
2022-10-05T01:35:55.847Z,21.70
2022-10-05T01:38:41.845Z,20.02
2022-10-05T01:41:48.817Z,19.90
2022-10-05T01:44:31.080Z,19.77
2022-10-05T01:47:25.829Z,21.13
2022-10-05T01:50:04.673Z,20.92
2022-10-05T01:53:09.843Z,20.65
2022-10-05T01:55:52.431Z,20.67
2022-10-05T01:58:58.837Z,19.88
2022-10-05T02:01:50.584Z,20.10
2022-10-05T02:05:04.160Z,19.55
2022-10-05T02:08:03.897Z,20.55
2022-10-05T02:11:11.864Z,20.52
2022-10-05T02:14:25.832Z,20.63
2022-10-05T02:17:26.852Z,19.05
2022-10-05T02:20:17.841Z,20.50
2022-10-05T02:22:55.965Z,20.30
2022-10-05T02:25:45.844Z,19.40
2022-10-05T02:28:24.979Z,20.20
2022-10-05T02:31:22.934Z,19.92
2022-10-05T02:33:55.925Z,19.67
2022-10-05T02:36:44.115Z,20.50
2022-10-05T02:39:30.866Z,19.65
2022-10-05T02:42:36.867Z,20.52
2022-10-05T02:45:33.911Z,18.85
2022-10-05T02:48:19.951Z,17.20
2022-10-05T02:51:20.851Z,19.92
2022-10-05T02:54:16.984Z,20.98
2022-10-05T02:57:43.880Z,18.50
2022-10-05T03:00:29.886Z,19.02
2022-10-05T03:03:42.877Z,17.80
2022-10-05T03:06:35.883Z,19.58
2022-10-05T03:09:16.343Z,19.38
2022-10-05T03:12:18.877Z,19.15
2022-10-05T03:15:43.082Z,18.98
2022-10-05T03:19:01.860Z,17.48
2022-10-05T03:22:07.873Z,18.77
2022-10-05T03:24:54.015Z,17.70
2022-10-05T03:27:56.959Z,18.92
2022-10-05T03:30:37.876Z,20.27
2022-10-05T03:33:51.787Z,17.65
2022-10-05T03:36:58.902Z,17.10
2022-10-05T03:39:48.068Z,18.27
2022-10-05T03:42:45.874Z,18.65
2022-10-05T03:45:36.988Z,18.85
2022-10-05T03:48:35.882Z,16.67
2022-10-05T03:51:27.965Z,16.10
2022-10-05T03:54:50.951Z,17.70
2022-10-05T03:57:40.898Z,17.92
2022-10-05T04:00:45.882Z,17.08
2022-10-05T04:03:54.906Z,17.40
2022-10-05T04:06:49.244Z,16.33
2022-10-05T04:09:43.011Z,16.30
2022-10-05T04:12:36.947Z,14.75
2022-10-05T04:15:41.102Z,15.68
2022-10-05T04:18:32.944Z,15.77
2022-10-05T04:21:24.961Z,17.00
2022-10-05T04:24:19.906Z,15.43
2022-10-05T04:27:13.033Z,15.73
2022-10-05T04:30:18.964Z,16.30
2022-10-05T04:32:59.036Z,14.57
2022-10-05T04:36:11.905Z,14.52
2022-10-05T04:38:56.951Z,13.88
2022-10-05T04:42:03.904Z,14.65
2022-10-05T04:45:20.940Z,20.73
2022-10-05T04:48:46.303Z,17.98
2022-10-05T04:52:15.117Z,14.32
2022-10-05T04:55:26.951Z,13.80
2022-10-05T04:58:42.663Z,15.82
2022-10-05T05:01:47.902Z,15.77
2022-10-05T05:04:54.950Z,13.52
2022-10-05T05:08:02.957Z,15.10
2022-10-05T05:11:04.946Z,13.48
2022-10-05T05:13:53.210Z,16.95
2022-10-05T05:16:46.267Z,15.80
2022-10-05T05:19:29.971Z,14.25
2022-10-05T05:22:27.890Z,13.90
2022-10-05T05:25:32.944Z,13.52
2022-10-05T05:28:27.034Z,15.05
2022-10-05T05:31:23.074Z,14.13
2022-10-05T05:34:39.973Z,15.82
2022-10-05T05:37:35.973Z,17.17
2022-10-05T05:40:30.965Z,15.60
2022-10-05T05:43:18.159Z,14.73
2022-10-05T05:46:58.388Z,15.82
2022-10-05T05:49:38.992Z,15.80
2022-10-05T05:52:45.007Z,14.90
2022-10-05T05:55:30.103Z,15.00
2022-10-05T05:58:28.989Z,13.68
2022-10-05T06:01:25.089Z,17.48
2022-10-05T06:04:28.999Z,17.90
2022-10-05T06:07:30.856Z,17.90
2022-10-05T06:10:40.016Z,18.75
2022-10-05T06:13:50.953Z,17.20
2022-10-05T06:16:50.528Z,14.65
2022-10-05T06:19:33.973Z,15.30
2022-10-05T06:22:25.975Z,12.48
2022-10-05T06:25:49.800Z,13.35
2022-10-05T06:28:38.068Z,16.58
2022-10-05T06:31:33.080Z,13.90
2022-10-05T06:34:45.972Z,13.70
2022-10-05T06:38:02.021Z,15.27
2022-10-05T06:41:18.946Z,15.52
2022-10-05T06:44:03.976Z,16.40
2022-10-05T06:47:18.969Z,12.93
2022-10-05T06:50:21.980Z,14.43
2022-10-05T06:53:23.061Z,18.40
2022-10-05T06:56:32.013Z,13.50
2022-10-05T06:59:11.116Z,17.08
2022-10-05T07:02:11.072Z,15.38
2022-10-05T07:05:11.132Z,12.05
2022-10-05T07:08:04.016Z,14.23
2022-10-05T07:10:58.008Z,13.52
2022-10-05T07:14:28.020Z,15.05
2022-10-05T07:18:00.003Z,15.88
2022-10-05T07:20:59.006Z,15.18
2022-10-05T07:24:13.973Z,16.52
2022-10-05T07:27:18.013Z,16.17
2022-10-05T07:29:58.993Z,16.35
2022-10-05T07:32:57.996Z,17.75
2022-10-05T07:36:38.020Z,15.27
2022-10-05T07:39:58.457Z,18.38
2022-10-05T07:42:48.917Z,17.50
2022-10-05T07:46:14.058Z,16.60
2022-10-05T07:48:57.078Z,17.80
2022-10-05T07:51:54.022Z,18.08
2022-10-05T07:54:56.016Z,15.70
2022-10-05T07:57:56.027Z,17.25
2022-10-05T08:00:39.021Z,18.75
2022-10-05T08:03:51.001Z,17.63
2022-10-05T08:07:18.046Z,17.98
2022-10-05T08:10:24.096Z,18.48
2022-10-05T08:13:08.017Z,18.50
2022-10-05T08:15:53.815Z,17.10
2022-10-05T08:18:49.020Z,16.65
2022-10-05T08:21:43.068Z,17.45
2022-10-05T08:24:50.017Z,17.60
2022-10-05T08:27:39.072Z,17.20
2022-10-05T08:30:22.018Z,16.00
2022-10-05T08:33:08.073Z,13.55
2022-10-05T08:35:52.022Z,15.23
2022-10-05T08:38:45.000Z,15.98
2022-10-05T08:41:43.021Z,15.65
2022-10-05T08:45:04.732Z,13.13
2022-10-05T08:47:57.017Z,12.98
2022-10-05T08:50:58.066Z,12.95
2022-10-05T08:53:52.333Z,13.77
2022-10-05T08:57:14.999Z,15.52
2022-10-05T09:00:00.242Z,13.40
2022-10-05T09:03:05.024Z,13.73
2022-10-05T09:05:41.028Z,14.30
2022-10-05T09:08:54.076Z,14.73
2022-10-05T09:11:37.653Z,14.93
2022-10-05T09:15:01.586Z,13.90
2022-10-05T09:18:11.163Z,12.57
2022-10-05T09:21:08.021Z,14.35
2022-10-05T09:23:50.036Z,12.10
2022-10-05T09:26:39.094Z,11.52
2022-10-05T09:29:44.016Z,14.23
2022-10-05T09:32:58.171Z,13.57
2022-10-05T09:35:59.028Z,13.35
2022-10-05T09:38:51.104Z,15.30
2022-10-05T09:42:05.033Z,14.43
2022-10-05T09:45:31.042Z,12.25
2022-10-05T09:48:33.183Z,13.48
2022-10-05T09:51:35.034Z,13.65
2022-10-05T09:54:45.373Z,11.77
2022-10-05T09:57:59.065Z,12.10
2022-10-05T10:00:38.221Z,13.85
2022-10-05T10:04:02.069Z,12.60
2022-10-05T10:07:28.065Z,12.43
2022-10-05T10:10:47.049Z,13.85
2022-10-05T10:13:38.152Z,14.13
2022-10-05T10:17:02.070Z,13.70
2022-10-05T10:19:48.071Z,14.45
2022-10-05T10:22:57.053Z,14.20
2022-10-05T10:25:45.156Z,12.98
2022-10-05T10:28:57.028Z,15.05
2022-10-05T10:31:45.392Z,12.23
2022-10-05T10:35:05.045Z,13.50
2022-10-05T10:38:16.074Z,14.38
2022-10-05T10:40:58.114Z,13.15
2022-10-05T10:44:23.107Z,13.55
2022-10-05T10:47:33.061Z,11.73
2022-10-05T10:51:01.056Z,11.82
2022-10-05T10:54:25.068Z,12.85
2022-10-05T10:57:18.072Z,13.45
2022-10-05T11:00:11.060Z,14.38
2022-10-05T11:03:09.124Z,13.13
2022-10-05T11:06:40.070Z,11.77
2022-10-05T11:09:39.068Z,13.75
2022-10-05T11:12:47.078Z,16.15
2022-10-05T11:16:23.096Z,15.35
2022-10-05T11:19:40.503Z,15.68
2022-10-05T11:22:48.074Z,16.88
2022-10-05T11:25:56.076Z,18.15
2022-10-05T11:29:47.077Z,18.75
2022-10-05T11:33:21.060Z,17.63
2022-10-05T11:36:24.077Z,16.48
2022-10-05T11:39:11.217Z,19.30
2022-10-05T11:42:35.098Z,16.17
2022-10-05T11:45:43.092Z,18.45
2022-10-05T11:48:37.211Z,17.67
2022-10-05T11:51:49.285Z,19.25
2022-10-05T11:54:22.183Z,18.10
2022-10-05T11:57:15.106Z,19.63
2022-10-05T12:00:01.225Z,16.90
2022-10-05T12:03:22.227Z,14.52
2022-10-05T12:06:18.152Z,15.93
2022-10-05T12:09:43.093Z,16.60
2022-10-05T12:12:33.111Z,18.58
2022-10-05T12:15:36.118Z,17.85
2022-10-05T12:18:22.194Z,19.63
2022-10-05T12:21:14.095Z,18.70
2022-10-05T12:24:03.225Z,17.98
2022-10-05T12:27:02.129Z,17.75
2022-10-05T12:29:42.178Z,20.50
2022-10-05T12:32:31.087Z,21.85
2022-10-05T12:35:47.402Z,20.45
2022-10-05T12:38:47.110Z,18.92
2022-10-05T12:41:40.120Z,19.75
2022-10-05T12:44:42.116Z,19.73
2022-10-05T12:47:51.520Z,17.77
2022-10-05T12:50:54.104Z,18.10
2022-10-05T12:54:17.132Z,18.52
2022-10-05T12:57:43.114Z,21.42
2022-10-05T13:00:37.202Z,21.15
2022-10-05T13:03:43.297Z,18.20
2022-10-05T13:06:33.238Z,20.95
2022-10-05T13:09:46.147Z,18.90
2022-10-05T13:12:51.559Z,18.15
2022-10-05T13:15:38.133Z,19.48
2022-10-05T13:18:36.156Z,18.63
2022-10-05T13:21:41.144Z,18.88
2022-10-05T13:25:06.203Z,21.53
2022-10-05T13:28:15.179Z,18.52
2022-10-05T13:31:18.178Z,20.08
2022-10-05T13:34:14.414Z,19.20
2022-10-05T13:37:10.119Z,18.38
2022-10-05T13:40:08.241Z,18.77
2022-10-05T13:43:19.155Z,19.15
2022-10-05T13:46:08.197Z,18.00
2022-10-05T13:49:13.137Z,19.70
2022-10-05T13:52:15.166Z,19.08
2022-10-05T13:55:24.141Z,18.40
2022-10-05T13:58:26.162Z,21.08
2022-10-05T14:01:20.147Z,18.33
2022-10-05T14:04:30.246Z,19.83
2022-10-05T14:07:39.175Z,20.63
2022-10-05T14:10:27.152Z,18.38
2022-10-05T14:13:37.155Z,19.27
2022-10-05T14:16:33.182Z,18.70
2022-10-05T14:19:12.278Z,17.75
2022-10-05T14:22:23.157Z,19.58
2022-10-05T14:25:08.264Z,19.05
2022-10-05T14:28:06.551Z,18.33
2022-10-05T14:30:40.560Z,18.88
2022-10-05T14:33:40.152Z,21.85
2022-10-05T14:36:25.679Z,17.90
2022-10-05T14:39:07.368Z,21.25
2022-10-05T14:42:02.182Z,21.25
2022-10-05T14:44:56.298Z,18.85
2022-10-05T14:48:06.157Z,18.80
2022-10-05T14:51:02.185Z,18.85
2022-10-05T14:53:54.248Z,18.00
2022-10-05T14:57:01.199Z,21.42
2022-10-05T15:00:06.245Z,20.23
2022-10-05T15:03:24.189Z,19.83
2022-10-05T15:06:01.770Z,20.45
2022-10-05T15:08:59.179Z,18.85
2022-10-05T15:11:58.203Z,17.58
2022-10-05T15:14:50.160Z,20.73
2022-10-05T15:17:28.408Z,17.08
2022-10-05T15:20:31.179Z,20.40
2022-10-05T15:23:39.195Z,18.52
2022-10-05T15:26:59.189Z,17.73
2022-10-05T15:29:58.217Z,20.80
2022-10-05T15:32:41.592Z,18.83
2022-10-05T15:35:52.214Z,19.33
2022-10-05T15:38:43.213Z,21.08
2022-10-05T15:42:03.201Z,19.38
2022-10-05T15:44:58.216Z,18.55
2022-10-05T15:48:05.181Z,21.77
2022-10-05T15:51:17.215Z,19.65
2022-10-05T15:54:32.185Z,20.05
2022-10-05T15:57:25.305Z,22.35
2022-10-05T16:00:19.204Z,20.73
2022-10-05T16:03:30.283Z,19.23
2022-10-05T16:06:49.188Z,22.23
2022-10-05T16:09:34.300Z,22.33
2022-10-05T16:12:34.188Z,27.33
2022-10-05T16:15:42.693Z,25.02
2022-10-05T16:19:17.226Z,22.95
2022-10-05T16:22:10.213Z,23.23
2022-10-05T16:25:33.222Z,22.60
2022-10-05T16:28:48.286Z,19.63
2022-10-05T16:32:01.215Z,21.70
2022-10-05T16:35:14.242Z,30.55
2022-10-05T16:38:31.216Z,38.28
2022-10-05T16:41:35.229Z,38.20
2022-10-05T16:44:43.259Z,29.17
2022-10-05T16:48:01.330Z,24.63
2022-10-05T16:51:08.235Z,23.40
2022-10-05T16:54:18.382Z,22.05
2022-10-05T16:57:09.235Z,23.90
2022-10-05T17:00:28.225Z,26.27
2022-10-05T17:03:27.225Z,25.08
2022-10-05T17:06:15.375Z,27.10
2022-10-05T17:09:23.253Z,25.80
2022-10-05T17:12:11.299Z,25.55
2022-10-05T17:15:39.293Z,27.02
2022-10-05T17:18:57.232Z,32.92
2022-10-05T17:22:12.253Z,38.65
2022-10-05T17:25:11.243Z,39.20
2022-10-05T17:28:21.505Z,33.53
2022-10-05T17:31:22.296Z,30.92
2022-10-05T17:34:21.326Z,32.53
2022-10-05T17:37:45.275Z,35.38
2022-10-05T17:40:49.272Z,36.78
2022-10-05T17:43:47.247Z,42.72
2022-10-05T17:46:57.253Z,47.63
2022-10-05T17:50:17.277Z,45.33
2022-10-05T17:54:10.260Z,43.53
2022-10-05T17:57:02.242Z,44.20
2022-10-05T18:00:04.247Z,42.10
2022-10-05T18:02:40.650Z,40.67
2022-10-05T18:05:44.304Z,38.45
2022-10-05T18:08:40.254Z,36.47
2022-10-05T18:11:40.282Z,39.72
2022-10-05T18:14:31.360Z,41.40
2022-10-05T18:17:20.291Z,43.65
2022-10-05T18:20:26.267Z,44.50
2022-10-05T18:23:13.279Z,38.08
2022-10-05T18:25:52.367Z,39.10
2022-10-05T18:28:45.317Z,40.92
2022-10-05T18:31:45.326Z,40.05
2022-10-05T18:34:46.272Z,43.97
2022-10-05T18:37:54.312Z,42.35
2022-10-05T18:41:42.285Z,43.03
2022-10-05T18:44:40.290Z,46.88
2022-10-05T18:47:36.285Z,47.97
2022-10-05T18:50:41.286Z,43.55
2022-10-05T18:53:27.322Z,43.83
2022-10-05T18:56:26.275Z,48.10
2022-10-05T18:59:34.276Z,47.30
2022-10-05T19:02:50.411Z,44.10
2022-10-05T19:06:00.286Z,41.38
2022-10-05T19:09:05.289Z,43.35
2022-10-05T19:12:27.296Z,42.22
2022-10-05T19:15:33.310Z,36.92
2022-10-05T19:18:40.319Z,38.97
2022-10-05T19:21:42.288Z,36.53
2022-10-05T19:24:44.284Z,35.67
2022-10-05T19:27:46.284Z,39.30
2022-10-05T19:30:40.287Z,38.92
2022-10-05T19:33:29.340Z,43.13
2022-10-05T19:36:38.300Z,49.88
2022-10-05T19:39:30.282Z,48.45
2022-10-05T19:43:05.315Z,50.08
2022-10-05T19:46:01.347Z,44.60
2022-10-05T19:48:49.377Z,48.22
2022-10-05T19:51:39.399Z,50.63
2022-10-05T19:54:29.765Z,53.55
2022-10-05T19:57:24.314Z,53.38
2022-10-05T20:00:03.783Z,52.92
2022-10-05T20:02:50.361Z,48.80
2022-10-05T20:05:24.379Z,40.83
2022-10-05T20:08:12.300Z,42.50
2022-10-05T20:10:52.312Z,40.03
2022-10-05T20:13:41.310Z,41.20
2022-10-05T20:16:50.322Z,38.75
2022-10-05T20:19:43.314Z,38.28
2022-10-05T20:22:46.983Z,32.97
2022-10-05T20:25:35.310Z,38.85
2022-10-05T20:28:15.393Z,42.60
2022-10-05T20:31:09.362Z,40.85
2022-10-05T20:33:56.310Z,39.42
2022-10-05T20:36:36.353Z,33.92
2022-10-05T20:39:31.346Z,31.83
2022-10-05T20:42:25.354Z,33.25
2022-10-05T20:45:13.314Z,28.35
2022-10-05T20:47:47.387Z,29.15
2022-10-05T20:50:34.333Z,32.00
2022-10-05T20:53:11.605Z,29.55
2022-10-05T20:55:58.347Z,29.17
2022-10-05T20:58:31.711Z,27.52
2022-10-05T21:01:29.381Z,25.10
2022-10-05T21:04:06.855Z,27.60
2022-10-05T21:06:53.335Z,29.20
2022-10-05T21:09:27.426Z,26.88
2022-10-05T21:12:14.337Z,25.50
2022-10-05T21:14:47.516Z,27.33
2022-10-05T21:17:34.365Z,27.75
2022-10-05T21:20:14.405Z,28.35
2022-10-05T21:23:08.356Z,29.75
2022-10-05T21:25:55.349Z,30.92
2022-10-05T21:28:28.735Z,30.60
2022-10-05T21:31:16.433Z,29.80
2022-10-05T21:33:49.425Z,28.83
2022-10-05T21:36:36.358Z,27.23
2022-10-05T21:39:16.345Z,29.38
2022-10-05T21:42:10.349Z,30.90
2022-10-05T21:44:57.353Z,30.80
2022-10-05T21:47:37.364Z,28.52
2022-10-05T21:50:24.366Z,29.30
2022-10-05T21:53:04.370Z,29.88
2022-10-05T21:55:57.690Z,26.48
2022-10-05T21:58:34.422Z,24.55
2022-10-05T22:01:22.781Z,23.90
2022-10-05T22:03:56.996Z,25.23
2022-10-05T22:06:43.365Z,24.63
2022-10-05T22:09:23.378Z,24.75
2022-10-05T22:12:17.379Z,25.55
2022-10-05T22:15:12.357Z,22.85
2022-10-05T22:18:06.365Z,21.92
2022-10-05T22:20:53.364Z,25.52
2022-10-05T22:23:26.449Z,23.98
2022-10-05T22:26:15.387Z,24.52
2022-10-05T22:28:57.378Z,25.08
2022-10-05T22:31:45.437Z,25.67
2022-10-05T22:34:25.399Z,25.83
2022-10-05T22:37:13.377Z,26.63
2022-10-05T22:39:48.288Z,27.00
2022-10-05T22:42:35.369Z,26.75
2022-10-05T22:45:08.460Z,27.92
2022-10-05T22:47:55.391Z,25.35
2022-10-05T22:50:28.472Z,25.75
2022-10-05T22:53:15.414Z,26.67
2022-10-05T22:55:48.470Z,27.05
2022-10-05T22:58:35.441Z,25.42
2022-10-05T23:01:14.538Z,25.38
2022-10-05T23:04:03.410Z,26.73
2022-10-05T23:06:37.509Z,26.67
2022-10-05T23:09:24.381Z,25.60
2022-10-05T23:12:04.406Z,25.00
2022-10-05T23:14:58.385Z,24.85
2022-10-05T23:17:45.427Z,25.00
2022-10-05T23:20:18.502Z,26.20
2022-10-05T23:23:06.375Z,24.52
2022-10-05T23:25:46.397Z,25.02
2022-10-05T23:28:34.604Z,25.38
2022-10-05T23:31:13.493Z,25.23
2022-10-05T23:34:00.401Z,24.17
2022-10-05T23:36:42.408Z,22.50
2022-10-05T23:39:36.407Z,24.50
2022-10-05T23:42:23.424Z,24.90
2022-10-05T23:44:56.521Z,24.35
2022-10-05T23:47:43.428Z,24.27
2022-10-05T23:50:16.641Z,22.88
2022-10-05T23:53:03.417Z,21.63
2022-10-05T23:55:36.463Z,23.17
2022-10-05T23:58:23.413Z,23.58
